Time;durP1;ratioP1;P1;durP2;ratioP2;P2;SDS_P1;SDS_P2;PMS_P1;PMS_P2;Temp;Humidity;BMP_temperature;BMP_pressure;BME280_temperature;BME280_humidity;BME280_pressure;Samples;Min_cycle;Max_cycle;Signal;HPM_P1;HPM_P2
2022/11/14 00:01:42;;;;;;;3.42;3.12;;;;;;;7.86;100.00;100913.92;1746997;82;21060;-70
2022/11/14 00:04:27;;;;;;;5.28;2.72;;;;;;;7.82;100.00;100912.69;1747745;82;21157;-72
2022/11/14 00:07:13;;;;;;;4.47;3.37;;;;;;;7.78;100.00;100911.44;1747748;82;20961;-72
2022/11/14 00:10:00;;;;;;;4.00;2.80;;;;;;;7.76;100.00;100914.02;1743203;81;21046;-70
2022/11/14 00:12:46;;;;;;;3.80;3.02;;;;;;;7.73;100.00;100909.05;1739911;81;20955;-71
2022/11/14 00:15:31;;;;;;;6.45;3.12;;;;;;;7.70;100.00;100914.31;1731420;82;20967;-71
2022/11/14 00:18:18;;;;;;;3.50;3.10;;;;;;;7.67;100.00;100907.20;1700750;84;21050;-70
2022/11/14 00:21:03;;;;;;;3.37;2.83;;;;;;;7.65;100.00;100914.59;1706041;82;21535;-69
2022/11/14 00:23:48;;;;;;;3.30;3.00;;;;;;;7.61;100.00;100913.34;1696085;83;21215;-71
2022/11/14 00:26:33;;;;;;;3.50;2.55;;;;;;;7.54;100.00;100910.63;1682748;83;21034;-74
2022/11/14 00:29:18;;;;;;;2.70;2.47;;;;;;;7.50;100.00;100913.41;1646316;86;21089;-72
2022/11/14 00:32:06;;;;;;;4.65;3.17;;;;;;;7.45;100.00;100911.33;1661539;85;22349;-72
2022/11/14 00:34:51;;;;;;;3.75;3.45;;;;;;;7.43;100.00;100922.73;1695100;84;21114;-72
2022/11/14 00:37:38;;;;;;;5.87;3.17;;;;;;;7.42;100.00;100915.75;1664361;85;21145;-72
2022/11/14 00:40:23;;;;;;;5.12;3.37;;;;;;;7.37;100.00;100913.36;1646530;87;21586;-73
2022/11/14 00:43:08;;;;;;;4.92;3.12;;;;;;;7.32;99.96;100915.29;1656692;84;21022;-72
2022/11/14 00:45:53;;;;;;;4.83;3.05;;;;;;;7.26;99.91;100920.59;1677887;84;21013;-71
2022/11/14 00:48:43;;;;;;;3.62;3.12;;;;;;;7.23;100.00;100916.99;1667519;85;21046;-70
2022/11/14 00:51:28;;;;;;;5.47;2.90;;;;;;;7.20;100.00;100922.20;1678402;85;21165;-70
2022/11/14 00:54:13;;;;;;;4.80;3.17;;;;;;;7.18;100.00;100916.75;1706443;81;21015;-71
2022/11/14 00:57:00;;;;;;;3.50;2.92;;;;;;;7.15;100.00;100916.62;1697163;83;21004;-70
2022/11/14 00:59:44;;;;;;;3.62;3.27;;;;;;;7.11;100.00;100911.86;1705300;83;21513;-73
2022/11/14 01:02:29;;;;;;;4.87;3.27;;;;;;;7.07;100.00;100917.30;1694141;84;21070;-70
2022/11/14 01:05:15;;;;;;;5.28;2.75;;;;;;;7.03;100.00;100915.53;1723326;82;21169;-70
2022/11/14 01:08:00;;;;;;;5.50;2.75;;;;;;;7.00;100.00;100915.95;1708254;83;21045;-71
2022/11/14 01:10:48;;;;;;;6.25;3.25;;;;;;;6.98;100.00;100919.31;1687378;85;21545;-70
2022/11/14 01:13:34;;;;;;;3.95;3.02;;;;;;;6.96;100.00;100920.83;1701976;82;21721;-71
2022/11/14 01:16:23;;;;;;;5.37;3.22;;;;;;;6.95;100.00;100925.06;1677726;84;21014;-70
2022/11/14 01:19:08;;;;;;;4.85;2.92;;;;;;;6.91;100.00;100926.45;1663322;86;21082;-70
2022/11/14 01:21:53;;;;;;;4.83;2.80;;;;;;;6.87;100.00;100920.67;1678201;84;21003;-71
2022/11/14 01:24:39;;;;;;;4.28;2.40;;;;;;;6.83;100.00;100921.27;1693924;84;21503;-71
2022/11/14 01:27:24;;;;;;;7.12;2.98;;;;;;;6.80;100.00;100922.50;1672675;84;21043;-71
2022/11/14 01:30:12;;;;;;;5.05;3.42;;;;;;;6.79;100.00;100918.16;1673282;85;20962;-71
2022/11/14 01:32:58;;;;;;;4.90;2.85;;;;;;;6.76;100.00;100929.22;1665760;86;21743;-70
2022/11/14 01:35:43;;;;;;;3.75;2.92;;;;;;;6.76;100.00;100924.42;1664723;86;21003;-71
2022/11/14 01:38:30;;;;;;;6.22;3.25;;;;;;;6.73;100.00;100913.58;1690131;84;20975;-71
2022/11/14 01:41:16;;;;;;;2.85;2.55;;;;;;;6.69;100.00;100923.02;1641377;85;20941;-71
2022/11/14 01:44:01;;;;;;;3.83;3.05;;;;;;;6.63;100.00;100923.78;1666161;85;21134;-72
2022/11/14 01:46:48;;;;;;;4.37;2.92;;;;;;;6.61;100.00;100928.52;1652963;86;21054;-70
2022/11/14 01:49:40;;;;;;;4.00;3.02;;;;;;;6.58;100.00;100932.89;1664110;86;20993;-70
2022/11/14 01:52:36;;;;;;;5.47;3.00;;;;;;;6.58;100.00;100935.56;1666687;84;21529;-71
2022/11/14 01:55:21;;;;;;;5.12;2.50;;;;;;;6.54;100.00;100932.46;1661606;84;21093;-72
2022/11/14 01:58:06;;;;;;;3.05;2.40;;;;;;;6.50;100.00;100928.53;1665072;86;21152;-71
2022/11/14 02:00:51;;;;;;;6.67;2.67;;;;;;;6.45;100.00;100929.61;1669250;85;21373;-72
2022/11/14 02:03:38;;;;;;;6.67;2.85;;;;;;;6.42;100.00;100932.69;1670417;84;21076;-71
2022/11/14 02:06:26;;;;;;;4.20;3.02;;;;;;;6.39;100.00;100929.55;1679511;84;20955;-72
2022/11/14 02:09:12;;;;;;;3.87;2.98;;;;;;;6.36;100.00;100928.60;1667313;86;21055;-71
2022/11/14 02:11:57;;;;;;;4.75;2.50;;;;;;;6.32;100.00;100926.83;1668724;85;21019;-71
2022/11/14 02:14:45;;;;;;;3.98;2.45;;;;;;;6.28;100.00;100930.08;1673801;84;22050;-70
2022/11/14 02:17:30;;;;;;;3.77;2.75;;;;;;;6.27;100.00;100931.09;1672489;84;20990;-71
2022/11/14 02:20:21;;;;;;;5.70;3.10;;;;;;;6.26;100.00;100922.25;1666471;85;21559;-72
2022/11/14 02:23:05;;;;;;;6.40;3.00;;;;;;;6.27;100.00;100929.25;1665775;86;21004;-73
2022/11/14 02:25:50;;;;;;;4.00;2.60;;;;;;;6.28;99.89;100940.27;1713752;82;21015;-74
2022/11/14 02:28:35;;;;;;;4.28;2.72;;;;;;;6.25;99.59;100933.11;1704699;83;21050;-72
2022/11/14 02:31:20;;;;;;;5.95;2.35;;;;;;;6.21;99.45;100933.19;1677797;85;21757;-72
2022/11/14 02:34:07;;;;;;;3.42;2.20;;;;;;;6.19;99.54;100944.59;1678394;84;21014;-72
2022/11/14 02:36:52;;;;;;;4.05;2.25;;;;;;;6.17;99.66;100935.41;1677937;85;21104;-73
2022/11/14 02:39:38;;;;;;;2.62;2.40;;;;;;;6.19;99.74;100932.56;1715976;82;21501;-72
2022/11/14 02:42:23;;;;;;;2.67;2.27;;;;;;;6.21;99.83;100921.16;1707568;82;22456;-72
2022/11/14 02:45:09;;;;;;;3.70;3.20;;;;;;;6.22;100.00;100924.16;1690881;82;21003;-71
2022/11/14 02:47:54;;;;;;;6.87;2.58;;;;;;;6.23;100.00;100925.81;1677252;85;20987;-71
2022/11/14 02:50:39;;;;;;;6.45;2.58;;;;;;;6.21;100.00;100930.52;1717251;83;20960;-71
2022/11/14 02:53:24;;;;;;;3.42;2.67;;;;;;;6.20;100.00;100933.69;1693351;82;20991;-74
2022/11/14 02:56:09;;;;;;;9.93;2.98;;;;;;;6.18;100.00;100925.06;1688660;85;21891;-72
2022/11/14 02:58:55;;;;;;;7.15;3.58;;;;;;;6.16;100.00;100934.27;1696615;82;20987;-72
2022/11/14 03:01:40;;;;;;;5.67;2.70;;;;;;;6.12;100.00;100932.48;1699690;83;21698;-74
2022/11/14 03:04:25;;;;;;;3.02;2.42;;;;;;;6.08;100.00;100940.56;1712439;82;22257;-68
2022/11/14 03:07:10;;;;;;;3.67;2.62;;;;;;;6.02;100.00;100935.47;1708517;82;21099;-79
2022/11/14 03:09:56;;;;;;;5.72;2.72;;;;;;;5.95;100.00;100930.55;1730141;83;22174;-76
2022/11/14 03:12:41;;;;;;;4.15;2.80;;;;;;;5.91;100.00;100939.96;1729934;82;21007;-77
2022/11/14 03:15:27;;;;;;;4.15;2.80;;;;;;;5.87;100.00;100928.02;1707328;82;21028;-78
2022/11/14 03:18:18;;;;;;;3.98;2.65;;;;;;;5.85;100.00;100927.33;1679171;80;21541;-76
2022/11/14 03:21:12;;;;;;;7.05;3.75;;;;;;;5.82;100.00;100933.56;1648847;87;21071;-75
2022/11/14 03:23:57;;;;;;;4.62;2.70;;;;;;;5.78;100.00;100933.12;1669201;85;21934;-80
2022/11/14 03:26:41;;;;;;;6.03;5.15;;;;;;;5.77;100.00;100938.64;1669985;85;21365;-76
2022/11/14 03:29:26;;;;;;;6.15;2.52;;;;;;;5.73;100.00;100938.19;1669392;84;21135;-76
2022/11/14 03:32:11;;;;;;;3.60;2.47;;;;;;;5.73;100.00;100952.04;1670241;85;21561;-69
2022/11/14 03:34:57;;;;;;;3.67;2.40;;;;;;;5.70;100.00;100939.41;1669630;85;21581;-73
2022/11/14 03:37:42;;;;;;;4.90;2.42;;;;;;;5.68;100.00;100951.27;1670142;85;21554;-71
2022/11/14 03:40:27;;;;;;;3.72;2.90;;;;;;;5.61;100.00;100944.51;1669761;84;21045;-70
2022/11/14 03:43:12;;;;;;;3.15;2.30;;;;;;;5.54;100.00;100945.45;1670168;85;21557;-70
2022/11/14 03:45:59;;;;;;;3.30;2.27;;;;;;;5.50;100.00;100944.17;1648959;85;21102;-71
2022/11/14 03:48:47;;;;;;;4.03;2.87;;;;;;;5.47;100.00;100945.36;1642681;87;21157;-70
2022/11/14 03:51:32;;;;;;;5.10;2.80;;;;;;;5.46;100.00;100951.73;1669449;84;21146;-72
2022/11/14 03:54:17;;;;;;;5.75;3.58;;;;;;;5.45;100.00;100946.57;1725842;82;20980;-70
2022/11/14 03:57:03;;;;;;;3.42;2.85;;;;;;;5.43;100.00;100946.75;1706139;83;21043;-71
2022/11/14 03:59:48;;;;;;;3.47;2.50;;;;;;;5.41;100.00;100946.63;1706905;82;21044;-70
2022/11/14 04:02:33;;;;;;;5.72;3.30;;;;;;;5.38;100.00;100938.47;1706167;83;21146;-71
2022/11/14 04:05:18;;;;;;;5.25;2.40;;;;;;;5.36;100.00;100937.02;1706557;83;20996;-70
2022/11/14 04:08:06;;;;;;;3.67;2.30;;;;;;;5.37;100.00;100945.34;1706804;83;21020;-67
2022/11/14 04:10:53;;;;;;;3.98;2.37;;;;;;;5.38;100.00;100945.14;1706705;84;21029;-66
2022/11/14 04:13:38;;;;;;;5.28;2.62;;;;;;;5.41;100.00;100946.13;1696953;83;21579;-66
2022/11/14 04:16:23;;;;;;;5.67;3.20;;;;;;;5.41;100.00;100946.63;1703428;83;21073;-64
2022/11/14 04:19:10;;;;;;;2.85;2.52;;;;;;;5.37;100.00;100947.48;1679796;84;20984;-68
2022/11/14 04:21:55;;;;;;;5.47;2.55;;;;;;;5.31;100.00;100954.91;1687342;84;20972;-79
2022/11/14 04:24:42;;;;;;;4.78;2.58;;;;;;;5.29;100.00;100952.92;1668672;84;21079;-76
2022/11/14 04:27:27;;;;;;;2.95;2.70;;;;;;;5.29;100.00;100947.59;1696258;84;21039;-76
2022/11/14 04:30:14;;;;;;;4.70;2.67;;;;;;;5.29;100.00;100959.59;1646485;86;21123;-76
2022/11/14 04:32:58;;;;;;;6.30;3.42;;;;;;;5.28;100.00;100962.76;1666405;85;21110;-77
2022/11/14 04:35:43;;;;;;;5.60;2.75;;;;;;;5.28;100.00;100958.76;1650571;85;21060;-78
2022/11/14 04:38:29;;;;;;;5.42;3.65;;;;;;;5.27;100.00;100961.63;1654456;86;21123;-70
2022/11/14 04:41:14;;;;;;;2.87;2.15;;;;;;;5.22;100.00;100966.69;1666553;86;21556;-71
2022/11/14 04:43:59;;;;;;;5.05;3.75;;;;;;;5.21;100.00;100967.69;1667720;84;21090;-76
2022/11/14 04:46:44;;;;;;;6.08;2.75;;;;;;;5.21;100.00;100970.36;1665416;86;21139;-67
2022/11/14 04:49:31;;;;;;;3.75;2.50;;;;;;;5.20;100.00;100968.20;1672140;85;21693;-69
2022/11/14 04:52:16;;;;;;;2.95;2.05;;;;;;;5.22;100.00;100975.52;1695448;84;21027;-69
2022/11/14 04:55:01;;;;;;;2.62;2.42;;;;;;;5.21;100.00;100970.36;1681834;84;21011;-69
2022/11/14 04:57:46;;;;;;;3.35;3.05;;;;;;;5.16;100.00;100966.91;1680231;84;21022;-68
2022/11/14 05:00:31;;;;;;;4.85;2.67;;;;;;;5.13;100.00;100969.13;1680694;84;21084;-71
2022/11/14 05:03:16;;;;;;;2.80;2.55;;;;;;;5.10;100.00;100972.97;1673014;85;21099;-70
2022/11/14 05:06:02;;;;;;;4.87;3.10;;;;;;;5.12;100.00;100975.46;1672522;85;21098;-70
2022/11/14 05:08:47;;;;;;;6.33;3.22;;;;;;;5.12;100.00;100974.12;1690338;84;21061;-73
2022/11/14 05:11:34;;;;;;;3.15;2.72;;;;;;;5.12;100.00;100974.12;1685728;83;21018;-69
2022/11/14 05:14:19;;;;;;;2.83;2.62;;;;;;;5.11;100.00;100986.63;1629271;87;21219;-71
2022/11/14 05:17:05;;;;;;;5.78;2.42;;;;;;;5.10;100.00;100990.80;1646965;86;21522;-69
2022/11/14 05:19:49;;;;;;;3.02;2.30;;;;;;;5.09;100.00;100987.80;1647379;87;20944;-68
2022/11/14 05:22:34;;;;;;;3.83;2.52;;;;;;;5.07;100.00;100988.51;1647218;87;21011;-68
2022/11/14 05:25:20;;;;;;;6.85;2.52;;;;;;;5.06;100.00;100985.02;1670732;85;21067;-70
2022/11/14 05:28:05;;;;;;;3.77;2.77;;;;;;;5.09;100.00;100995.80;1676137;84;21051;-70
2022/11/14 05:30:50;;;;;;;3.55;3.02;;;;;;;5.10;100.00;100984.14;1703194;84;21008;-68
2022/11/14 05:33:35;;;;;;;3.20;2.30;;;;;;;5.08;100.00;100991.00;1702931;83;21043;-69
2022/11/14 05:36:20;;;;;;;3.95;2.67;;;;;;;5.04;100.00;101000.35;1672314;85;20991;-69
2022/11/14 05:39:06;;;;;;;3.87;2.90;;;;;;;5.00;100.00;100997.73;1676185;84;21583;-69
2022/11/14 05:41:51;;;;;;;5.60;3.08;;;;;;;4.96;100.00;101008.94;1674299;85;21258;-70
2022/11/14 05:44:37;;;;;;;5.20;3.15;;;;;;;4.95;100.00;101003.28;1674685;85;21111;-67
2022/11/14 05:47:22;;;;;;;5.62;3.02;;;;;;;4.98;100.00;101000.27;1674635;85;21050;-69
2022/11/14 05:50:08;;;;;;;4.47;3.40;;;;;;;4.99;100.00;100997.94;1697928;84;21050;-70
2022/11/14 05:52:55;;;;;;;3.30;3.00;;;;;;;5.01;100.00;101011.89;1703426;84;21023;-69
2022/11/14 05:55:42;;;;;;;3.12;2.47;;;;;;;5.00;100.00;101004.40;1691867;84;21151;-72
2022/11/14 05:58:27;;;;;;;4.22;3.80;;;;;;;4.99;100.00;101003.27;1685537;84;21700;-70
2022/11/14 06:01:15;;;;;;;3.40;2.80;;;;;;;5.01;100.00;101015.39;1703290;84;21125;-71
2022/11/14 06:04:00;;;;;;;4.00;2.92;;;;;;;5.03;100.00;101016.05;1692552;83;21579;-71
2022/11/14 06:06:45;;;;;;;9.78;3.65;;;;;;;5.06;100.00;101019.67;1673734;85;21038;-70
2022/11/14 06:09:32;;;;;;;3.00;2.65;;;;;;;5.06;100.00;101018.34;1694878;84;21203;-73
2022/11/14 06:12:16;;;;;;;3.75;3.35;;;;;;;5.04;100.00;101021.69;1676557;84;21086;-70
2022/11/14 06:15:04;;;;;;;4.40;2.83;;;;;;;5.03;100.00;101024.55;1703297;84;21535;-69
2022/11/14 06:17:52;;;;;;;8.13;3.12;;;;;;;5.03;100.00;101031.22;1644489;84;21015;-69
2022/11/14 06:20:39;;;;;;;4.03;3.40;;;;;;;5.02;100.00;101029.55;1704618;84;20947;-71
2022/11/14 06:23:24;;;;;;;3.10;2.83;;;;;;;5.03;100.00;101025.38;1687313;83;20989;-70
2022/11/14 06:26:22;;;;;;;4.55;2.87;;;;;;;5.06;100.00;101022.84;1676223;84;21042;-71
2022/11/14 06:29:09;;;;;;;5.65;3.20;;;;;;;5.07;100.00;101026.67;1676656;84;21089;-71
2022/11/14 06:31:53;;;;;;;5.00;4.10;;;;;;;5.09;100.00;101027.80;1669029;84;21070;-72
2022/11/14 06:34:40;;;;;;;4.83;3.67;;;;;;;5.12;100.00;101026.13;1706158;83;21079;-68
2022/11/14 06:37:25;;;;;;;5.17;3.30;;;;;;;5.10;100.00;101022.80;1677181;83;21166;-70
2022/11/14 06:40:11;;;;;;;7.97;3.12;;;;;;;5.12;100.00;101031.46;1673400;85;21335;-69
2022/11/14 06:42:56;;;;;;;8.65;4.28;;;;;;;5.15;100.00;101031.92;1654424;85;21090;-70
2022/11/14 06:45:43;;;;;;;9.23;5.08;;;;;;;5.22;100.00;101031.53;1664701;85;21005;-70
2022/11/14 06:48:28;;;;;;;7.83;5.30;;;;;;;5.30;100.00;101037.78;1677570;85;21078;-72
2022/11/14 06:51:14;;;;;;;7.53;5.00;;;;;;;5.35;100.00;101032.72;1674575;85;20984;-68
2022/11/14 06:53:59;;;;;;;8.73;5.58;;;;;;;5.36;100.00;101027.72;1693077;84;21082;-71
2022/11/14 06:56:44;;;;;;;6.67;4.58;;;;;;;5.34;100.00;101030.55;1687006;84;20970;-71
2022/11/14 06:59:31;;;;;;;10.18;5.78;;;;;;;5.23;100.00;101040.33;1655799;84;21029;-70
2022/11/14 07:02:16;;;;;;;17.27;9.58;;;;;;;5.23;100.00;101041.66;1654136;85;21046;-70
2022/11/14 07:05:01;;;;;;;7.55;5.05;;;;;;;5.31;100.00;101044.77;1676892;84;21093;-69
2022/11/14 07:07:46;;;;;;;7.85;5.00;;;;;;;5.40;100.00;101047.68;1693893;84;21459;-71
2022/11/14 07:10:33;;;;;;;7.03;4.20;;;;;;;5.43;100.00;101037.96;1692894;84;21007;-71
2022/11/14 07:13:18;;;;;;;12.85;5.10;;;;;;;5.47;100.00;101048.59;1697045;84;20974;-75
2022/11/14 07:16:04;;;;;;;10.40;6.10;;;;;;;5.54;100.00;101046.86;1675779;84;21064;-72
2022/11/14 07:18:49;;;;;;;5.22;3.65;;;;;;;5.58;100.00;101046.80;1675229;84;21766;-72
2022/11/14 07:21:34;;;;;;;7.78;4.28;;;;;;;5.60;100.00;101038.95;1678521;84;21092;-71
2022/11/14 07:24:19;;;;;;;7.50;3.95;;;;;;;5.65;100.00;101047.23;1679450;84;21085;-72
2022/11/14 07:27:07;;;;;;;6.12;4.35;;;;;;;5.65;100.00;101047.73;1702536;84;21562;-71
2022/11/14 07:29:52;;;;;;;3.90;3.17;;;;;;;5.66;100.00;101046.70;1690835;84;21066;-70
2022/11/14 07:32:37;;;;;;;5.72;4.15;;;;;;;5.67;100.00;101056.38;1663952;85;21162;-71
2022/11/14 07:35:24;;;;;;;8.18;4.03;;;;;;;5.72;100.00;101057.98;1699658;84;21034;-72
2022/11/14 07:38:10;;;;;;;7.28;4.55;;;;;;;5.78;100.00;101055.92;1699083;84;20990;-70
2022/11/14 07:41:01;;;;;;;8.00;5.97;;;;;;;5.80;100.00;101056.58;1682163;84;21026;-70
2022/11/14 07:43:46;;;;;;;10.35;5.28;;;;;;;5.80;100.00;101055.75;1678426;84;21111;-71
2022/11/14 07:46:31;;;;;;;6.67;4.22;;;;;;;5.77;100.00;101063.59;1653669;84;21256;-71
2022/11/14 07:49:17;;;;;;;7.25;4.75;;;;;;;5.84;100.00;101057.86;1684868;84;21010;-70
2022/11/14 07:52:02;;;;;;;9.70;4.12;;;;;;;5.91;100.00;101062.80;1704857;84;21105;-70
2022/11/14 07:54:47;;;;;;;7.42;4.60;;;;;;;6.02;100.00;101052.15;1676691;85;21027;-70
2022/11/14 07:57:33;;;;;;;4.83;4.33;;;;;;;6.11;100.00;101037.16;1684223;84;21055;-69
2022/11/14 08:00:18;;;;;;;6.75;4.33;;;;;;;6.22;100.00;101031.02;1705245;84;21232;-71
2022/11/14 08:03:07;;;;;;;6.25;4.20;;;;;;;6.29;100.00;101031.39;1655583;84;20995;-70
2022/11/14 08:05:51;;;;;;;4.97;3.60;;;;;;;6.34;100.00;101036.17;1698790;84;21546;-71
2022/11/14 08:08:36;;;;;;;6.87;4.50;;;;;;;6.35;100.00;101031.98;1672929;84;21026;-73
2022/11/14 08:11:46;;;;;;;5.47;4.33;;;;;;;6.36;100.00;101026.13;1683829;84;21038;-71
2022/11/14 08:14:10;;;;;;;6.55;5.00;;;;;;;6.36;100.00;101028.80;1670756;84;21563;-70
2022/11/14 08:16:56;;;;;;;10.20;5.33;;;;;;;6.40;100.00;101024.23;1677580;84;20954;-70
2022/11/14 08:19:42;;;;;;;9.50;4.00;;;;;;;6.53;100.00;101027.02;1689406;84;21536;-71
2022/11/14 08:22:27;;;;;;;5.17;4.50;;;;;;;6.65;100.00;101025.19;1691234;83;21074;-69
2022/11/14 08:25:13;;;;;;;7.53;4.90;;;;;;;6.72;99.69;101020.71;1692676;83;21088;-68
2022/11/14 08:27:58;;;;;;;6.72;4.20;;;;;;;6.78;99.26;101016.77;1692132;84;22073;-69
2022/11/14 08:30:45;;;;;;;10.10;4.10;;;;;;;6.81;98.26;101012.91;1692958;84;21011;-70
2022/11/14 08:33:30;;;;;;;8.58;4.47;;;;;;;6.83;97.65;101010.84;1690608;84;20990;-70
2022/11/14 08:36:16;;;;;;;6.58;3.62;;;;;;;6.93;97.64;101014.02;1687863;85;21104;-70
2022/11/14 08:39:01;;;;;;;3.95;3.55;;;;;;;7.06;97.22;101015.95;1691616;84;22416;-70
2022/11/14 08:41:45;;;;;;;4.83;3.55;;;;;;;7.12;95.69;101016.52;1691242;83;21211;-68
2022/11/14 08:44:30;;;;;;;3.42;3.12;;;;;;;7.15;95.50;101008.92;1686349;84;20997;-70
2022/11/14 08:47:15;;;;;;;7.47;5.12;;;;;;;7.24;95.28;101004.28;1691275;84;21075;-68
2022/11/14 08:50:00;;;;;;;8.78;3.33;;;;;;;7.36;94.58;100999.51;1691072;84;21493;-70
2022/11/14 08:52:50;;;;;;;5.60;3.10;;;;;;;7.48;93.74;101006.48;1689964;84;21045;-71
2022/11/14 08:55:36;;;;;;;6.22;3.22;;;;;;;7.58;93.07;101009.61;1677781;84;21257;-70
2022/11/14 08:58:21;;;;;;;7.20;2.40;;;;;;;7.65;92.04;101003.78;1678954;83;21077;-70
2022/11/14 09:01:06;;;;;;;5.00;2.25;;;;;;;7.68;90.42;101009.24;1690188;83;21501;-68
2022/11/14 09:03:51;;;;;;;2.27;2.00;;;;;;;7.64;88.61;101010.67;1682648;83;21051;-72
2022/11/14 09:06:36;;;;;;;5.25;1.82;;;;;;;7.67;88.55;101004.42;1689931;84;20981;-71
2022/11/14 09:09:21;;;;;;;6.53;2.02;;;;;;;7.73;86.75;101001.44;1693071;84;21156;-70
2022/11/14 09:12:07;;;;;;;2.92;1.67;;;;;;;7.79;86.63;100992.62;1693156;84;22449;-70
2022/11/14 09:14:52;;;;;;;3.05;1.92;;;;;;;7.84;85.63;100989.66;1690417;84;21096;-72
2022/11/14 09:17:37;;;;;;;2.58;1.90;;;;;;;7.86;84.52;100994.28;1692289;83;21257;-68
2022/11/14 09:20:23;;;;;;;2.30;1.70;;;;;;;7.90;83.93;100988.03;1679734;84;21022;-72
2022/11/14 09:23:09;;;;;;;7.60;3.72;;;;;;;7.93;83.54;100986.28;1673682;84;21185;-72
2022/11/14 09:25:55;;;;;;;4.37;2.00;;;;;;;7.89;81.63;100979.68;1673749;85;20980;-69
2022/11/14 09:28:41;;;;;;;4.05;1.85;;;;;;;7.90;81.76;100982.68;1675664;85;21543;-71
2022/11/14 09:31:26;;;;;;;5.05;1.75;;;;;;;7.95;81.54;100984.24;1668885;85;20994;-69
2022/11/14 09:34:11;;;;;;;2.98;1.98;;;;;;;7.96;80.04;100989.09;1677650;85;21027;-68
2022/11/14 09:36:56;;;;;;;4.45;2.50;;;;;;;7.96;79.06;100994.45;1676626;84;21228;-69
2022/11/14 09:39:41;;;;;;;2.95;2.08;;;;;;;7.88;78.79;100986.88;1659185;84;21050;-71
2022/11/14 09:42:52;;;;;;;5.85;2.08;;;;;;;7.86;79.16;100991.61;1706031;83;20987;-69
2022/11/14 09:45:42;;;;;;;4.08;2.30;;;;;;;7.82;78.74;100984.17;1650192;87;21050;-69
2022/11/14 09:48:28;;;;;;;7.45;5.50;;;;;;;7.76;78.65;100989.01;1683117;84;21014;-69
2022/11/14 09:51:21;;;;;;;3.20;1.90;;;;;;;7.77;78.60;100982.64;1694805;83;21113;-71
2022/11/14 09:54:24;;;;;;;5.37;2.33;;;;;;;7.81;78.60;100976.67;1667266;84;21097;-72
2022/11/14 09:57:18;;;;;;;3.37;2.05;;;;;;;7.89;78.20;100979.68;1675583;85;21587;-70
2022/11/14 14:15:26;;;;;;;4.47;3.17;;;;;;;7.33;82.99;100906.75;1873219;75;29080;-79
2022/11/14 14:18:51;;;;;;;3.33;2.95;;;;;;;7.32;82.96;100907.27;1857964;77;20983;-75
2022/11/14 14:21:42;;;;;;;5.72;3.67;;;;;;;7.31;82.85;100911.47;1859461;77;21672;-74
2022/11/14 14:24:54;;;;;;;9.28;4.10;;;;;;;7.22;82.96;100905.45;1819116;78;21607;-74
2022/11/14 14:28:19;;;;;;;4.83;3.67;;;;;;;7.16;83.13;100904.08;1856666;77;21477;-72
2022/11/14 14:31:11;;;;;;;9.18;5.28;;;;;;;7.08;83.33;100909.59;1859259;77;20881;-72
2022/11/14 14:33:57;;;;;;;6.10;4.58;;;;;;;6.89;84.10;100911.95;1861851;77;20956;-77
2022/11/14 14:36:49;;;;;;;11.12;6.45;;;;;;;6.74;84.86;100907.73;1857296;77;21091;-78
2022/11/14 14:39:36;;;;;;;8.78;6.08;;;;;;;6.59;85.70;100913.17;1817783;78;20958;-76
2022/11/14 14:42:21;;;;;;;8.40;5.17;;;;;;;6.54;86.01;100914.26;1821427;78;21089;-79
2022/11/14 14:45:17;;;;;;;8.08;5.20;;;;;;;6.50;86.33;100913.83;1844477;77;20984;-74
2022/11/14 14:48:15;;;;;;;12.25;5.42;;;;;;;6.46;86.53;100911.73;1840420;77;21058;-72
2022/11/14 14:51:01;;;;;;;7.53;5.30;;;;;;;6.41;86.97;100914.16;1841312;77;22937;-77
2022/11/14 14:53:53;;;;;;;15.88;6.10;;;;;;;6.38;87.27;100915.89;1859076;77;20967;-68
2022/11/14 14:56:38;;;;;;;8.08;5.42;;;;;;;6.31;87.61;100910.98;1852352;77;21279;-76
2022/11/14 14:59:24;;;;;;;11.93;7.08;;;;;;;6.17;88.08;100911.37;1850255;77;20990;-76
2022/11/14 15:02:14;;;;;;;7.87;6.70;;;;;;;6.03;88.70;100912.27;1828278;77;20975;-71
2022/11/14 15:04:59;;;;;;;9.18;7.12;;;;;;;5.94;88.96;100916.08;1807387;78;21901;-71
2022/11/14 15:07:45;;;;;;;10.50;7.87;;;;;;;5.93;89.26;100920.59;1788938;78;21027;-74
2022/11/14 15:10:32;;;;;;;10.60;7.85;;;;;;;5.83;89.72;100921.37;1807038;78;21167;-72
2022/11/14 15:13:18;;;;;;;10.98;7.65;;;;;;;5.68;90.27;100920.58;1822247;77;21006;-74
2022/11/14 15:16:04;;;;;;;10.72;8.20;;;;;;;5.56;90.62;100922.89;1809545;78;21016;-73
2022/11/14 15:18:51;;;;;;;17.48;8.30;;;;;;;5.38;91.62;100915.80;1812246;78;21209;-78
2022/11/14 15:21:37;;;;;;;8.48;7.50;;;;;;;5.27;92.05;100914.41;1802442;78;21022;-73
2022/11/14 15:24:23;;;;;;;11.65;7.80;;;;;;;5.15;92.75;100917.25;1812730;77;21540;-73
2022/11/14 15:27:17;;;;;;;10.13;7.75;;;;;;;5.10;93.07;100924.14;1806248;78;21330;-70
2022/11/14 15:30:06;;;;;;;10.13;9.00;;;;;;;5.00;93.71;100923.08;1814083;78;21468;-80
2022/11/14 15:32:57;;;;;;;11.93;8.65;;;;;;;4.97;93.87;100927.95;1790233;78;21152;-73
2022/11/14 15:35:42;;;;;;;11.93;9.63;;;;;;;4.93;94.00;100929.34;1836404;77;20952;-74
2022/11/14 15:38:28;;;;;;;10.43;8.15;;;;;;;4.84;94.26;100927.27;1812771;78;21013;-74
2022/11/14 15:41:22;;;;;;;11.43;8.93;;;;;;;4.84;94.68;100928.06;1787054;79;21004;-79
2022/11/14 15:44:31;;;;;;;10.20;8.33;;;;;;;4.81;94.58;100925.78;1799469;77;21643;-80
2022/11/14 15:47:27;;;;;;;8.48;7.35;;;;;;;4.82;94.67;100927.44;1721362;83;21095;-73
2022/11/14 15:50:17;;;;;;;14.38;9.73;;;;;;;4.83;94.61;100929.10;1798367;78;21007;-77
2022/11/14 15:53:08;;;;;;;18.42;10.20;;;;;;;4.84;94.45;100932.59;1804613;78;20964;-76
2022/11/14 15:55:53;;;;;;;14.85;8.33;;;;;;;4.81;94.30;100928.95;1808148;79;20932;-78
2022/11/14 15:58:38;;;;;;;19.57;12.63;;;;;;;4.71;94.32;100931.04;1808063;79;21543;-78
2022/11/14 16:01:24;;;;;;;28.55;12.95;;;;;;;4.65;94.59;100930.45;1809611;79;21139;-77
2022/11/14 16:04:18;;;;;;;28.55;15.25;;;;;;;4.57;94.96;100932.67;1817347;77;20989;-79
2022/11/14 16:07:04;;;;;;;18.32;10.72;;;;;;;4.51;95.01;100933.38;1817955;77;20960;-74
2022/11/14 16:09:49;;;;;;;13.80;9.53;;;;;;;4.56;95.27;100930.18;1812055;79;20953;-76
2022/11/14 16:12:36;;;;;;;8.93;7.95;;;;;;;4.57;95.07;100923.34;1811290;79;20983;-73
2022/11/14 16:15:21;;;;;;;8.35;7.05;;;;;;;4.55;94.90;100922.72;1762662;80;21141;-79
2022/11/14 16:18:09;;;;;;;11.63;8.18;;;;;;;4.48;94.64;100931.09;1758113;81;21547;-78
2022/11/14 16:20:58;;;;;;;10.98;8.78;;;;;;;4.34;94.66;100925.22;1761841;80;21008;-74
2022/11/14 16:23:42;;;;;;;13.15;7.50;;;;;;;4.28;95.02;100920.60;1753692;80;21082;-79
2022/11/14 16:26:28;;;;;;;9.75;7.80;;;;;;;4.19;95.24;100916.34;1732401;80;21540;-67
2022/11/14 16:29:14;;;;;;;13.90;9.13;;;;;;;4.16;95.55;100918.87;1747339;80;21510;-86
2022/11/14 16:31:58;;;;;;;13.38;8.30;;;;;;;4.12;95.65;100918.91;1760941;81;20989;-83
2022/11/14 16:34:44;;;;;;;12.45;7.67;;;;;;;4.09;95.68;100913.92;1785631;79;20955;-70
2022/11/14 16:37:30;;;;;;;12.40;7.72;;;;;;;4.04;95.66;100911.47;1787011;79;21032;-71
2022/11/14 16:40:26;;;;;;;11.85;7.67;;;;;;;4.00;95.77;100915.49;1767269;81;21085;-71
2022/11/14 16:43:13;;;;;;;8.08;7.00;;;;;;;3.94;95.98;100921.02;1765209;80;22054;-69
2022/11/14 16:46:04;;;;;;;12.90;7.62;;;;;;;3.88;96.19;100918.58;1735404;81;21071;-77
2022/11/14 16:48:49;;;;;;;7.12;6.03;;;;;;;3.89;96.53;100918.05;1764328;81;21003;-72
2022/11/14 16:51:35;;;;;;;9.80;6.28;;;;;;;3.86;96.67;100912.59;1768349;81;21018;-74
2022/11/14 16:54:20;;;;;;;7.87;6.47;;;;;;;3.83;96.80;100915.62;1786597;79;21067;-75
2022/11/14 16:57:05;;;;;;;13.65;7.60;;;;;;;3.77;96.86;100907.50;1737552;80;21720;-75
2022/11/14 16:59:50;;;;;;;11.10;8.53;;;;;;;3.70;96.92;100907.36;1744966;80;21153;-74
2022/11/14 17:02:36;;;;;;;18.17;8.50;;;;;;;3.67;97.05;100912.21;1754628;80;21078;-70
2022/11/14 17:05:21;;;;;;;12.18;8.20;;;;;;;3.61;97.28;100918.22;1784618;78;21027;-72
2022/11/14 17:08:06;;;;;;;9.53;7.67;;;;;;;3.55;97.54;100919.75;1786961;78;21064;-85
2022/11/14 17:10:53;;;;;;;12.63;8.00;;;;;;;3.46;98.05;100906.99;1773855;80;21080;-83
2022/11/14 17:13:39;;;;;;;10.78;8.68;;;;;;;3.40;98.45;100911.70;1778690;79;21235;-70